PWSweather.com
Personal Weather Stations
Station Observations
SD92115WX
El Cerrito Stoneybluff, San Diego, CA 92115

El Cerrito StoneybluffSan Diego, CA 92115

Lat: 32.754096, Lon: -117.066705

Elevation: 420

Station Type: Davis Vantage Vue

http://stoneybluff.com

High Low Average
Temperature 79.2°F26.2°C 51.6°F10.9°C 66.0°F18.9°C
Dew Point 57.9°F14.4°C 33.1°F0.6°C 46.4°F8.0°C
Winds 10.5 mph 16.9 kmh Calm Calm 2.0 mph S3.2 kmh S
Wind Gusts 15.9 mph25.6 kmh -- 4.0 mph6.4 kmh
Humidity 94% 22% 53%
Pressure 29.94 in1013.9 mb 29.82 in1009.8 mb -
Precipitation 0.00 in0.0 mm - -
Hour Temp Dew Point Humidity Winds Wind Gusts Pressure Precip Precip Rate Daily Precip Total
12:01 AM 58.6°F14.8°C 37.9°F3.3°C 46% Calm Calm -- 29.94 in1013.9 mb 0.00 in0.0 mm 0.00 in0.0 mm 0.00 in0.0 mm
12:06 AM 58.5°F14.7°C 37.2°F2.9°C 45% Calm Calm -- 29.94 in1013.9 mb 0.00 in0.0 mm 0.00 in0.0 mm 0.00 in0.0 mm
12:11 AM 58.5°F14.7°C 38.8°F3.8°C 48% Calm Calm -- 29.94 in1013.9 mb 0.00 in0.0 mm 0.00 in0.0 mm 0.00 in0.0 mm
12:16 AM 58.3°F14.6°C 39.7°F4.3°C 50% Calm Calm -- 29.94 in1013.9 mb 0.00 in0.0 mm 0.00 in0.0 mm 0.00 in0.0 mm
12:21 AM 57.7°F14.3°C 39.7°F4.3°C 51% Calm Calm -- 29.93 in1013.5 mb 0.00 in0.0 mm 0.00 in0.0 mm 0.00 in0.0 mm
12:26 AM 57.2°F14.0°C 39.2°F4.0°C 51% Calm Calm -- 29.93 in1013.5 mb 0.00 in0.0 mm 0.00 in0.0 mm 0.00 in0.0 mm
12:31 AM 57.2°F14.0°C 37.8°F3.2°C 48% Calm Calm -- 29.93 in1013.5 mb 0.00 in0.0 mm 0.00 in0.0 mm 0.00 in0.0 mm
12:36 AM 57.6°F14.2°C 37.9°F3.3°C 48% Calm Calm -- 29.93 in1013.5 mb 0.00 in0.0 mm 0.00 in0.0 mm 0.00 in0.0 mm
12:41 AM 57.6°F14.2°C 37.9°F3.3°C 48% Calm Calm -- 29.93 in1013.5 mb 0.00 in0.0 mm 0.00 in0.0 mm 0.00 in0.0 mm
12:46 AM 57.6°F14.2°C 37.4°F3.0°C 47% Calm Calm -- 29.93 in1013.5 mb 0.00 in0.0 mm 0.00 in0.0 mm 0.00 in0.0 mm
12:51 AM 57.4°F14.1°C 36.1°F2.3°C 45% Calm Calm -- 29.93 in1013.5 mb 0.00 in0.0 mm 0.00 in0.0 mm 0.00 in0.0 mm
12:56 AM 57.4°F14.1°C 36.1°F2.3°C 45% Calm Calm -- 29.93 in1013.5 mb 0.00 in0.0 mm 0.00 in0.0 mm 0.00 in0.0 mm
01:01 AM 57.0°F13.9°C 36.0°F2.2°C 45% Calm Calm -- 29.93 in1013.5 mb 0.00 in0.0 mm 0.00 in0.0 mm 0.00 in0.0 mm
01:06 AM 56.8°F13.8°C 36.3°F2.4°C 46% Calm Calm -- 29.92 in1013.2 mb 0.00 in0.0 mm 0.00 in0.0 mm 0.00 in0.0 mm
01:11 AM 56.5°F13.6°C 34.9°F1.6°C 44% Calm Calm -- 29.92 in1013.2 mb 0.00 in0.0 mm 0.00 in0.0 mm 0.00 in0.0 mm
01:16 AM 56.5°F13.6°C 34.9°F1.6°C 44% Calm Calm -- 29.92 in1013.2 mb 0.00 in0.0 mm 0.00 in0.0 mm 0.00 in0.0 mm
01:21 AM 56.1°F13.4°C 35.1°F1.7°C 45% Calm Calm -- 29.92 in1013.2 mb 0.00 in0.0 mm 0.00 in0.0 mm 0.00 in0.0 mm
01:26 AM 56.1°F13.4°C 34.5°F1.4°C 44% Calm Calm -- 29.92 in1013.2 mb 0.00 in0.0 mm 0.00 in0.0 mm 0.00 in0.0 mm
01:31 AM 56.3°F13.5°C 34.7°F1.5°C 44% Calm Calm -- 29.92 in1013.2 mb 0.00 in0.0 mm 0.00 in0.0 mm 0.00 in0.0 mm
01:36 AM 56.7°F13.7°C 34.3°F1.3°C 43% Calm Calm -- 29.92 in1013.2 mb 0.00 in0.0 mm 0.00 in0.0 mm 0.00 in0.0 mm
01:41 AM 56.7°F13.7°C 34.3°F1.3°C 43% Calm Calm -- 29.92 in1013.2 mb 0.00 in0.0 mm 0.00 in0.0 mm 0.00 in0.0 mm
01:46 AM 56.7°F13.7°C 34.3°F1.3°C 43% Calm Calm -- 29.92 in1013.2 mb 0.00 in0.0 mm 0.00 in0.0 mm 0.00 in0.0 mm
01:51 AM 56.3°F13.5°C 35.2°F1.8°C 45% Calm Calm -- 29.92 in1013.2 mb 0.00 in0.0 mm 0.00 in0.0 mm 0.00 in0.0 mm
01:56 AM 56.5°F13.6°C 34.3°F1.3°C 43% Calm Calm -- 29.93 in1013.5 mb 0.00 in0.0 mm 0.00 in0.0 mm 0.00 in0.0 mm
02:01 AM 56.5°F13.6°C 34.9°F1.6°C 44% Calm Calm -- 29.93 in1013.5 mb 0.00 in0.0 mm 0.00 in0.0 mm 0.00 in0.0 mm
02:06 AM 56.1°F13.4°C 35.6°F2.0°C 46% Calm Calm -- 29.92 in1013.2 mb 0.00 in0.0 mm 0.00 in0.0 mm 0.00 in0.0 mm
02:11 AM 55.6°F13.1°C 36.7°F2.6°C 49% Calm Calm -- 29.92 in1013.2 mb 0.00 in0.0 mm 0.00 in0.0 mm 0.00 in0.0 mm
02:16 AM 55.4°F13.0°C 36.5°F2.5°C 49% Calm Calm -- 29.93 in1013.5 mb 0.00 in0.0 mm 0.00 in0.0 mm 0.00 in0.0 mm
02:21 AM 55.0°F12.8°C 36.1°F2.3°C 49% Calm Calm -- 29.92 in1013.2 mb 0.00 in0.0 mm 0.00 in0.0 mm 0.00 in0.0 mm
02:26 AM 54.7°F12.6°C 36.3°F2.4°C 50% Calm Calm -- 29.92 in1013.2 mb 0.00 in0.0 mm 0.00 in0.0 mm 0.00 in0.0 mm
02:31 AM 54.3°F12.4°C 35.6°F2.0°C 49% Calm Calm -- 29.92 in1013.2 mb 0.00 in0.0 mm 0.00 in0.0 mm 0.00 in0.0 mm
02:36 AM 54.3°F12.4°C 36.1°F2.3°C 50% Calm Calm -- 29.92 in1013.2 mb 0.00 in0.0 mm 0.00 in0.0 mm 0.00 in0.0 mm
02:41 AM 54.1°F12.3°C 36.9°F2.7°C 52% Calm Calm -- 29.92 in1013.2 mb 0.00 in0.0 mm 0.00 in0.0 mm 0.00 in0.0 mm
02:46 AM 53.8°F12.1°C 36.5°F2.5°C 52% Calm Calm -- 29.92 in1013.2 mb 0.00 in0.0 mm 0.00 in0.0 mm 0.00 in0.0 mm
02:51 AM 53.6°F12.0°C 36.0°F2.2°C 51% Calm Calm -- 29.92 in1013.2 mb 0.00 in0.0 mm 0.00 in0.0 mm 0.00 in0.0 mm
02:56 AM 53.6°F12.0°C 36.3°F2.4°C 52% Calm Calm -- 29.92 in1013.2 mb 0.00 in0.0 mm 0.00 in0.0 mm 0.00 in0.0 mm
03:01 AM 53.4°F11.9°C 36.3°F2.4°C 52% Calm Calm -- 29.92 in1013.2 mb 0.00 in0.0 mm 0.00 in0.0 mm 0.00 in0.0 mm
03:06 AM 53.8°F12.1°C 36.5°F2.5°C 52% Calm Calm -- 29.92 in1013.2 mb 0.00 in0.0 mm 0.00 in0.0 mm 0.00 in0.0 mm
03:11 AM 54.1°F12.3°C 36.9°F2.7°C 52% Calm Calm -- 29.92 in1013.2 mb 0.00 in0.0 mm 0.00 in0.0 mm 0.00 in0.0 mm
03:16 AM 53.8°F12.1°C 37.0°F2.8°C 53% Calm Calm -- 29.92 in1013.2 mb 0.00 in0.0 mm 0.00 in0.0 mm 0.00 in0.0 mm
03:21 AM 53.4°F11.9°C 36.7°F2.6°C 53% Calm Calm -- 29.92 in1013.2 mb 0.00 in0.0 mm 0.00 in0.0 mm 0.00 in0.0 mm
03:26 AM 53.1°F11.7°C 36.9°F2.7°C 54% Calm Calm -- 29.91 in1012.9 mb 0.00 in0.0 mm 0.00 in0.0 mm 0.00 in0.0 mm
03:31 AM 52.9°F11.6°C 36.7°F2.6°C 54% Calm Calm -- 29.92 in1013.2 mb 0.00 in0.0 mm 0.00 in0.0 mm 0.00 in0.0 mm
03:36 AM 53.2°F11.8°C 37.9°F3.3°C 56% Calm Calm 1.1 mph1.8 kmh 29.91 in1012.9 mb 0.00 in0.0 mm 0.00 in0.0 mm 0.00 in0.0 mm
03:41 AM 53.1°F11.7°C 37.4°F3.0°C 55% Calm Calm -- 29.91 in1012.9 mb 0.00 in0.0 mm 0.00 in0.0 mm 0.00 in0.0 mm
03:46 AM 52.9°F11.6°C 37.2°F2.9°C 55% Calm Calm -- 29.91 in1012.9 mb 0.00 in0.0 mm 0.00 in0.0 mm 0.00 in0.0 mm
03:51 AM 52.9°F11.6°C 37.2°F2.9°C 55% Calm Calm -- 29.91 in1012.9 mb 0.00 in0.0 mm 0.00 in0.0 mm 0.00 in0.0 mm
03:56 AM 52.7°F11.5°C 37.0°F2.8°C 55% Calm Calm -- 29.91 in1012.9 mb 0.00 in0.0 mm 0.00 in0.0 mm 0.00 in0.0 mm
04:01 AM 52.9°F11.6°C 37.6°F3.1°C 56% Calm Calm -- 29.91 in1012.9 mb 0.00 in0.0 mm 0.00 in0.0 mm 0.00 in0.0 mm
04:06 AM 52.9°F11.6°C 37.2°F2.9°C 55% Calm Calm 1.1 mph1.8 kmh 29.91 in1012.9 mb 0.00 in0.0 mm 0.00 in0.0 mm 0.00 in0.0 mm
04:11 AM 52.5°F11.4°C 36.9°F2.7°C 55% Calm Calm -- 29.91 in1012.9 mb 0.00 in0.0 mm 0.00 in0.0 mm 0.00 in0.0 mm
04:16 AM 52.5°F11.4°C 36.9°F2.7°C 55% Calm Calm -- 29.91 in1012.9 mb 0.00 in0.0 mm 0.00 in0.0 mm 0.00 in0.0 mm
04:21 AM 52.5°F11.4°C 36.9°F2.7°C 55% Calm Calm -- 29.91 in1012.9 mb 0.00 in0.0 mm 0.00 in0.0 mm 0.00 in0.0 mm
04:26 AM 52.5°F11.4°C 36.3°F2.4°C 54% Calm Calm -- 29.91 in1012.9 mb 0.00 in0.0 mm 0.00 in0.0 mm 0.00 in0.0 mm
04:31 AM 52.3°F11.3°C 36.1°F2.3°C 54% Calm Calm -- 29.91 in1012.9 mb 0.00 in0.0 mm 0.00 in0.0 mm 0.00 in0.0 mm
04:36 AM 52.0°F11.1°C 34.9°F1.6°C 52% Calm Calm -- 29.91 in1012.9 mb 0.00 in0.0 mm 0.00 in0.0 mm 0.00 in0.0 mm
04:41 AM 51.6°F10.9°C 35.6°F2.0°C 54% Calm Calm -- 29.91 in1012.9 mb 0.00 in0.0 mm 0.00 in0.0 mm 0.00 in0.0 mm
04:46 AM 51.6°F10.9°C 35.1°F1.7°C 53% Calm Calm -- 29.91 in1012.9 mb 0.00 in0.0 mm 0.00 in0.0 mm 0.00 in0.0 mm
04:51 AM 51.6°F10.9°C 34.5°F1.4°C 52% Calm Calm -- 29.91 in1012.9 mb 0.00 in0.0 mm 0.00 in0.0 mm 0.00 in0.0 mm
04:56 AM 52.0°F11.1°C 34.3°F1.3°C 51% Calm Calm -- 29.91 in1012.9 mb 0.00 in0.0 mm 0.00 in0.0 mm 0.00 in0.0 mm
05:01 AM 51.8°F11.0°C 33.8°F1.0°C 50% Calm Calm -- 29.91 in1012.9 mb 0.00 in0.0 mm 0.00 in0.0 mm 0.00 in0.0 mm
05:06 AM 52.2°F11.2°C 34.5°F1.4°C 51% Calm Calm -- 29.90 in1012.5 mb 0.00 in0.0 mm 0.00 in0.0 mm 0.00 in0.0 mm
05:11 AM 52.2°F11.2°C 34.5°F1.4°C 51% Calm Calm -- 29.90 in1012.5 mb 0.00 in0.0 mm 0.00 in0.0 mm 0.00 in0.0 mm
05:16 AM 52.0°F11.1°C 34.3°F1.3°C 51% Calm Calm -- 29.91 in1012.9 mb 0.00 in0.0 mm 0.00 in0.0 mm 0.00 in0.0 mm
05:21 AM 51.8°F11.0°C 33.8°F1.0°C 50% Calm Calm -- 29.91 in1012.9 mb 0.00 in0.0 mm 0.00 in0.0 mm 0.00 in0.0 mm
05:26 AM 51.6°F10.9°C 33.6°F0.9°C 50% Calm Calm -- 29.91 in1012.9 mb 0.00 in0.0 mm 0.00 in0.0 mm 0.00 in0.0 mm
05:31 AM 51.8°F11.0°C 33.8°F1.0°C 50% Calm Calm -- 29.91 in1012.9 mb 0.00 in0.0 mm 0.00 in0.0 mm 0.00 in0.0 mm
05:36 AM 52.2°F11.2°C 34.5°F1.4°C 51% Calm Calm -- 29.91 in1012.9 mb 0.00 in0.0 mm 0.00 in0.0 mm 0.00 in0.0 mm
05:41 AM 52.2°F11.2°C 34.5°F1.4°C 51% Calm Calm -- 29.91 in1012.9 mb 0.00 in0.0 mm 0.00 in0.0 mm 0.00 in0.0 mm
05:46 AM 52.3°F11.3°C 34.7°F1.5°C 51% Calm Calm -- 29.91 in1012.9 mb 0.00 in0.0 mm 0.00 in0.0 mm 0.00 in0.0 mm
05:51 AM 52.3°F11.3°C 35.8°F2.1°C 53% Calm Calm -- 29.91 in1012.9 mb 0.00 in0.0 mm 0.00 in0.0 mm 0.00 in0.0 mm
05:56 AM 52.3°F11.3°C 36.7°F2.6°C 55% Calm Calm -- 29.91 in1012.9 mb 0.00 in0.0 mm 0.00 in0.0 mm 0.00 in0.0 mm
06:01 AM 53.8°F12.1°C 37.0°F2.8°C 53% Calm Calm -- 29.91 in1012.9 mb 0.00 in0.0 mm 0.00 in0.0 mm 0.00 in0.0 mm
06:06 AM 55.9°F13.3°C 38.5°F3.6°C 52% Calm Calm -- 29.91 in1012.9 mb 0.00 in0.0 mm 0.00 in0.0 mm 0.00 in0.0 mm
06:11 AM 57.7°F14.3°C 37.6°F3.1°C 47% Calm Calm -- 29.91 in1012.9 mb 0.00 in0.0 mm 0.00 in0.0 mm 0.00 in0.0 mm
06:16 AM 59.5°F15.3°C 38.1°F3.4°C 45% Calm Calm -- 29.91 in1012.9 mb 0.00 in0.0 mm 0.00 in0.0 mm 0.00 in0.0 mm
06:21 AM 60.3°F15.7°C 38.3°F3.5°C 44% Calm Calm -- 29.91 in1012.9 mb 0.00 in0.0 mm 0.00 in0.0 mm 0.00 in0.0 mm
06:26 AM 61.0°F16.1°C 38.3°F3.5°C 43% Calm Calm -- 29.91 in1012.9 mb 0.00 in0.0 mm 0.00 in0.0 mm 0.00 in0.0 mm
06:31 AM 62.1°F16.7°C 37.4°F3.0°C 40% Calm Calm -- 29.91 in1012.9 mb 0.00 in0.0 mm 0.00 in0.0 mm 0.00 in0.0 mm
06:36 AM 63.9°F17.7°C 37.8°F3.2°C 38% Calm Calm -- 29.91 in1012.9 mb 0.00 in0.0 mm 0.00 in0.0 mm 0.00 in0.0 mm
06:41 AM 64.6°F18.1°C 36.3°F2.4°C 35% Calm Calm -- 29.91 in1012.9 mb 0.00 in0.0 mm 0.00 in0.0 mm 0.00 in0.0 mm
06:46 AM 65.1°F18.4°C 36.1°F2.3°C 34% Calm Calm -- 29.91 in1012.9 mb 0.00 in0.0 mm 0.00 in0.0 mm 0.00 in0.0 mm
06:51 AM 65.8°F18.8°C 36.7°F2.6°C 34% Calm Calm 1.1 mph1.8 kmh 29.91 in1012.9 mb 0.00 in0.0 mm 0.00 in0.0 mm 0.00 in0.0 mm
06:56 AM 66.7°F19.3°C 35.1°F1.7°C 31% Calm Calm 1.1 mph1.8 kmh 29.91 in1012.9 mb 0.00 in0.0 mm 0.00 in0.0 mm 0.00 in0.0 mm
07:01 AM 67.3°F19.6°C 36.5°F2.5°C 32% Calm Calm -- 29.91 in1012.9 mb 0.00 in0.0 mm 0.00 in0.0 mm 0.00 in0.0 mm
07:06 AM 66.9°F19.4°C 34.5°F1.4°C 30% Calm Calm -- 29.91 in1012.9 mb 0.00 in0.0 mm 0.00 in0.0 mm 0.00 in0.0 mm
07:11 AM 66.9°F19.4°C 33.6°F0.9°C 29% 0.2 mph WNW0.3 kmh WNW 1.1 mph1.8 kmh 29.91 in1012.9 mb 0.00 in0.0 mm 0.00 in0.0 mm 0.00 in0.0 mm
07:16 AM 67.1°F19.5°C 33.8°F1.0°C 29% Calm Calm 1.1 mph1.8 kmh 29.91 in1012.9 mb 0.00 in0.0 mm 0.00 in0.0 mm 0.00 in0.0 mm
07:21 AM 67.3°F19.6°C 34.0°F1.1°C 29% Calm Calm 1.1 mph1.8 kmh 29.91 in1012.9 mb 0.00 in0.0 mm 0.00 in0.0 mm 0.00 in0.0 mm
07:26 AM 67.5°F19.7°C 33.3°F0.7°C 28% Calm Calm 1.1 mph1.8 kmh 29.91 in1012.9 mb 0.00 in0.0 mm 0.00 in0.0 mm 0.00 in0.0 mm
07:31 AM 68.2°F20.1°C 33.8°F1.0°C 28% Calm Calm -- 29.91 in1012.9 mb 0.00 in0.0 mm 0.00 in0.0 mm 0.00 in0.0 mm
07:36 AM 69.4°F20.8°C 33.1°F0.6°C 26% Calm Calm -- 29.91 in1012.9 mb 0.00 in0.0 mm 0.00 in0.0 mm 0.00 in0.0 mm
07:41 AM 69.8°F21.0°C 34.3°F1.3°C 27% Calm Calm -- 29.91 in1012.9 mb 0.00 in0.0 mm 0.00 in0.0 mm 0.00 in0.0 mm
07:46 AM 70.0°F21.1°C 34.5°F1.4°C 27% Calm Calm 1.1 mph1.8 kmh 29.91 in1012.9 mb 0.00 in0.0 mm 0.00 in0.0 mm 0.00 in0.0 mm
07:51 AM 70.0°F21.1°C 36.3°F2.4°C 29% 0.4 mph NW0.6 kmh NW 2.0 mph3.2 kmh 29.91 in1012.9 mb 0.00 in0.0 mm 0.00 in0.0 mm 0.00 in0.0 mm
07:56 AM 70.2°F21.2°C 36.5°F2.5°C 29% 0.2 mph WNW0.3 kmh WNW 2.0 mph3.2 kmh 29.91 in1012.9 mb 0.00 in0.0 mm 0.00 in0.0 mm 0.00 in0.0 mm
08:01 AM 70.2°F21.2°C 36.5°F2.5°C 29% 0.2 mph NW0.3 kmh NW 1.1 mph1.8 kmh 29.91 in1012.9 mb 0.00 in0.0 mm 0.00 in0.0 mm 0.00 in0.0 mm
08:06 AM 70.3°F21.3°C 35.6°F2.0°C 28% 0.4 mph W0.6 kmh W 2.0 mph3.2 kmh 29.90 in1012.5 mb 0.00 in0.0 mm 0.00 in0.0 mm 0.00 in0.0 mm
08:11 AM 70.3°F21.3°C 35.6°F2.0°C 28% 0.4 mph W0.6 kmh W 4.3 mph6.9 kmh 29.91 in1012.9 mb 0.00 in0.0 mm 0.00 in0.0 mm 0.00 in0.0 mm
08:16 AM 70.5°F21.4°C 35.8°F2.1°C 28% Calm Calm 3.1 mph5.0 kmh 29.91 in1012.9 mb 0.00 in0.0 mm 0.00 in0.0 mm 0.00 in0.0 mm
08:21 AM 71.1°F21.7°C 34.5°F1.4°C 26% 0.9 mph SSW1.4 kmh SSW 3.1 mph5.0 kmh 29.90 in1012.5 mb 0.00 in0.0 mm 0.00 in0.0 mm 0.00 in0.0 mm
08:26 AM 72.0°F22.2°C 36.1°F2.3°C 27% 0.4 mph SW0.6 kmh SW 3.1 mph5.0 kmh 29.90 in1012.5 mb 0.00 in0.0 mm 0.00 in0.0 mm 0.00 in0.0 mm
08:31 AM 73.0°F22.8°C 35.1°F1.7°C 25% Calm Calm 2.0 mph3.2 kmh 29.91 in1012.9 mb 0.00 in0.0 mm 0.00 in0.0 mm 0.00 in0.0 mm
08:36 AM 73.2°F22.9°C 34.3°F1.3°C 24% 0.4 mph SW0.6 kmh SW 3.1 mph5.0 kmh 29.91 in1012.9 mb 0.00 in0.0 mm 0.00 in0.0 mm 0.00 in0.0 mm
08:41 AM 73.8°F23.2°C 34.7°F1.5°C 24% 0.2 mph SW0.3 kmh SW 3.1 mph5.0 kmh 29.90 in1012.5 mb 0.00 in0.0 mm 0.00 in0.0 mm 0.00 in0.0 mm
08:46 AM 74.3°F23.5°C 36.1°F2.3°C 25% 1.1 mph SSW1.8 kmh SSW 4.3 mph6.9 kmh 29.90 in1012.5 mb 0.00 in0.0 mm 0.00 in0.0 mm 0.00 in0.0 mm
08:51 AM 74.1°F23.4°C 35.1°F1.7°C 24% 3.6 mph WSW5.8 kmh WSW 6.3 mph10.1 kmh 29.90 in1012.5 mb 0.00 in0.0 mm 0.00 in0.0 mm 0.00 in0.0 mm
08:56 AM 74.5°F23.6°C 35.2°F1.8°C 24% 2.9 mph S4.7 kmh S 7.4 mph11.9 kmh 29.90 in1012.5 mb 0.00 in0.0 mm 0.00 in0.0 mm 0.00 in0.0 mm
09:01 AM 74.5°F23.6°C 34.3°F1.3°C 23% 3.1 mph S5.0 kmh S 6.3 mph10.1 kmh 29.90 in1012.5 mb 0.00 in0.0 mm 0.00 in0.0 mm 0.00 in0.0 mm
09:06 AM 74.7°F23.7°C 35.4°F1.9°C 24% 2.5 mph SW4.0 kmh SW 7.4 mph11.9 kmh 29.90 in1012.5 mb 0.00 in0.0 mm 0.00 in0.0 mm 0.00 in0.0 mm
09:11 AM 74.7°F23.7°C 34.3°F1.3°C 23% 2.7 mph WNW4.3 kmh WNW 7.4 mph11.9 kmh 29.90 in1012.5 mb 0.00 in0.0 mm 0.00 in0.0 mm 0.00 in0.0 mm
09:16 AM 74.8°F23.8°C 34.5°F1.4°C 23% 1.6 mph SW2.6 kmh SW 6.3 mph10.1 kmh 29.90 in1012.5 mb 0.00 in0.0 mm 0.00 in0.0 mm 0.00 in0.0 mm
09:21 AM 75.2°F24.0°C 36.0°F2.2°C 24% 2.9 mph SW4.7 kmh SW 6.3 mph10.1 kmh 29.90 in1012.5 mb 0.00 in0.0 mm 0.00 in0.0 mm 0.00 in0.0 mm
09:26 AM 75.4°F24.1°C 36.1°F2.3°C 24% 2.9 mph SSE4.7 kmh SSE 5.4 mph8.7 kmh 29.90 in1012.5 mb 0.00 in0.0 mm 0.00 in0.0 mm 0.00 in0.0 mm
09:31 AM 75.4°F24.1°C 36.1°F2.3°C 24% 3.6 mph SSW5.8 kmh SSW 7.4 mph11.9 kmh 29.90 in1012.5 mb 0.00 in0.0 mm 0.00 in0.0 mm 0.00 in0.0 mm
09:36 AM 75.7°F24.3°C 35.2°F1.8°C 23% 4.5 mph SSW7.2 kmh SSW 9.6 mph15.4 kmh 29.90 in1012.5 mb 0.00 in0.0 mm 0.00 in0.0 mm 0.00 in0.0 mm
09:41 AM 75.4°F24.1°C 36.1°F2.3°C 24% 4.3 mph SW6.9 kmh SW 10.5 mph16.9 kmh 29.89 in1012.2 mb 0.00 in0.0 mm 0.00 in0.0 mm 0.00 in0.0 mm
09:46 AM 75.4°F24.1°C 35.1°F1.7°C 23% 5.6 mph SW9.0 kmh SW 9.6 mph15.4 kmh 29.89 in1012.2 mb 0.00 in0.0 mm 0.00 in0.0 mm 0.00 in0.0 mm
09:51 AM 75.6°F24.2°C 34.0°F1.1°C 22% 2.7 mph SW4.3 kmh SW 8.5 mph13.7 kmh 29.89 in1012.2 mb 0.00 in0.0 mm 0.00 in0.0 mm 0.00 in0.0 mm
09:56 AM 75.6°F24.2°C 36.3°F2.4°C 24% 4.3 mph SW6.9 kmh SW 9.6 mph15.4 kmh 29.89 in1012.2 mb 0.00 in0.0 mm 0.00 in0.0 mm 0.00 in0.0 mm
10:01 AM 75.9°F24.4°C 35.4°F1.9°C 23% 3.1 mph WSW5.0 kmh WSW 7.4 mph11.9 kmh 29.89 in1012.2 mb 0.00 in0.0 mm 0.00 in0.0 mm 0.00 in0.0 mm
10:06 AM 76.3°F24.6°C 37.9°F3.3°C 25% 2.5 mph SW4.0 kmh SW 6.3 mph10.1 kmh 29.89 in1012.2 mb 0.00 in0.0 mm 0.00 in0.0 mm 0.00 in0.0 mm
10:12 AM 76.8°F24.9°C 39.4°F4.1°C 26% 4.0 mph SSW6.4 kmh SSW 7.4 mph11.9 kmh 29.89 in1012.2 mb 0.00 in0.0 mm 0.00 in0.0 mm 0.00 in0.0 mm
10:17 AM 76.8°F24.9°C 38.3°F3.5°C 25% 4.0 mph SSW6.4 kmh SSW 10.5 mph16.9 kmh 29.89 in1012.2 mb 0.00 in0.0 mm 0.00 in0.0 mm 0.00 in0.0 mm
10:22 AM 77.4°F25.2°C 38.8°F3.8°C 25% 4.5 mph ESE7.2 kmh ESE 8.5 mph13.7 kmh 29.89 in1012.2 mb 0.00 in0.0 mm 0.00 in0.0 mm 0.00 in0.0 mm
10:27 AM 77.7°F25.4°C 39.0°F3.9°C 25% 5.6 mph SW9.0 kmh SW 10.5 mph16.9 kmh 29.89 in1012.2 mb 0.00 in0.0 mm 0.00 in0.0 mm 0.00 in0.0 mm
10:32 AM 77.5°F25.3°C 37.9°F3.3°C 24% 4.3 mph SW6.9 kmh SW 9.6 mph15.4 kmh 29.89 in1012.2 mb 0.00 in0.0 mm 0.00 in0.0 mm 0.00 in0.0 mm
10:37 AM 78.1°F25.6°C 39.4°F4.1°C 25% 5.4 mph SW8.7 kmh SW 9.6 mph15.4 kmh 29.89 in1012.2 mb 0.00 in0.0 mm 0.00 in0.0 mm 0.00 in0.0 mm
10:42 AM 78.1°F25.6°C 40.5°F4.7°C 26% 5.1 mph SW8.2 kmh SW 11.6 mph18.7 kmh 29.88 in1011.9 mb 0.00 in0.0 mm 0.00 in0.0 mm 0.00 in0.0 mm
10:47 AM 77.7°F25.4°C 40.1°F4.5°C 26% 5.4 mph SW8.7 kmh SW 9.6 mph15.4 kmh 29.88 in1011.9 mb 0.00 in0.0 mm 0.00 in0.0 mm 0.00 in0.0 mm
10:52 AM 78.1°F25.6°C 40.5°F4.7°C 26% 5.8 mph SSW9.3 kmh SSW 9.6 mph15.4 kmh 29.88 in1011.9 mb 0.00 in0.0 mm 0.00 in0.0 mm 0.00 in0.0 mm
10:57 AM 78.4°F25.8°C 40.6°F4.8°C 26% 6.0 mph WSW9.7 kmh WSW 9.6 mph15.4 kmh 29.88 in1011.9 mb 0.00 in0.0 mm 0.00 in0.0 mm 0.00 in0.0 mm
11:02 AM 78.6°F25.9°C 40.8°F4.9°C 26% 5.1 mph SW8.2 kmh SW 11.6 mph18.7 kmh 29.88 in1011.9 mb 0.00 in0.0 mm 0.00 in0.0 mm 0.00 in0.0 mm
11:07 AM 79.0°F26.1°C 41.2°F5.1°C 26% 6.5 mph SW10.5 kmh SW 13.9 mph22.4 kmh 29.87 in1011.5 mb 0.00 in0.0 mm 0.00 in0.0 mm 0.00 in0.0 mm
11:12 AM 78.8°F26.0°C 41.0°F5.0°C 26% 6.5 mph SW10.5 kmh SW 13.9 mph22.4 kmh 29.87 in1011.5 mb 0.00 in0.0 mm 0.00 in0.0 mm 0.00 in0.0 mm
11:17 AM 78.6°F25.9°C 41.9°F5.5°C 27% 6.7 mph SW10.8 kmh SW 12.8 mph20.6 kmh 29.86 in1011.2 mb 0.00 in0.0 mm 0.00 in0.0 mm 0.00 in0.0 mm
11:22 AM 79.0°F26.1°C 45.0°F7.2°C 30% 7.6 mph SSW12.2 kmh SSW 12.8 mph20.6 kmh 29.87 in1011.5 mb 0.00 in0.0 mm 0.00 in0.0 mm 0.00 in0.0 mm
11:27 AM 78.8°F26.0°C 44.8°F7.1°C 30% 4.9 mph SW7.9 kmh SW 11.6 mph18.7 kmh 29.87 in1011.5 mb 0.00 in0.0 mm 0.00 in0.0 mm 0.00 in0.0 mm
11:32 AM 78.6°F25.9°C 44.6°F7.0°C 30% 8.1 mph SSW13.0 kmh SSW 14.8 mph23.8 kmh 29.87 in1011.5 mb 0.00 in0.0 mm 0.00 in0.0 mm 0.00 in0.0 mm
11:37 AM 79.0°F26.1°C 45.7°F7.6°C 31% 8.1 mph SW13.0 kmh SW 14.8 mph23.8 kmh 29.86 in1011.2 mb 0.00 in0.0 mm 0.00 in0.0 mm 0.00 in0.0 mm
11:42 AM 78.6°F25.9°C 47.1°F8.4°C 33% 9.2 mph WSW14.8 kmh WSW 14.8 mph23.8 kmh 29.86 in1011.2 mb 0.00 in0.0 mm 0.00 in0.0 mm 0.00 in0.0 mm
11:47 AM 78.8°F26.0°C 48.0°F8.9°C 34% 7.4 mph S11.9 kmh S 15.9 mph25.6 kmh 29.86 in1011.2 mb 0.00 in0.0 mm 0.00 in0.0 mm 0.00 in0.0 mm
11:52 AM 78.1°F25.6°C 48.2°F9.0°C 35% 9.4 mph SW15.1 kmh SW 15.9 mph25.6 kmh 29.86 in1011.2 mb 0.00 in0.0 mm 0.00 in0.0 mm 0.00 in0.0 mm
11:57 AM 78.4°F25.8°C 47.7°F8.7°C 34% 8.3 mph S13.4 kmh S 11.6 mph18.7 kmh 29.85 in1010.8 mb 0.00 in0.0 mm 0.00 in0.0 mm 0.00 in0.0 mm
12:02 PM 78.8°F26.0°C 48.0°F8.9°C 34% 6.9 mph SW11.1 kmh SW 12.8 mph20.6 kmh 29.86 in1011.2 mb 0.00 in0.0 mm 0.00 in0.0 mm 0.00 in0.0 mm
12:07 PM 78.8°F26.0°C 48.0°F8.9°C 34% 8.1 mph SW13.0 kmh SW 13.9 mph22.4 kmh 29.85 in1010.8 mb 0.00 in0.0 mm 0.00 in0.0 mm 0.00 in0.0 mm
12:12 PM 79.0°F26.1°C 47.5°F8.6°C 33% 6.7 mph SW10.8 kmh SW 12.8 mph20.6 kmh 29.85 in1010.8 mb 0.00 in0.0 mm 0.00 in0.0 mm 0.00 in0.0 mm
12:17 PM 79.2°F26.2°C 47.7°F8.7°C 33% 8.7 mph SW14.0 kmh SW 14.8 mph23.8 kmh 29.85 in1010.8 mb 0.00 in0.0 mm 0.00 in0.0 mm 0.00 in0.0 mm
12:22 PM 79.0°F26.1°C 46.6°F8.1°C 32% 5.4 mph SW8.7 kmh SW 14.8 mph23.8 kmh 29.85 in1010.8 mb 0.00 in0.0 mm 0.00 in0.0 mm 0.00 in0.0 mm
12:27 PM 79.2°F26.2°C 45.9°F7.7°C 31% 6.5 mph SSW10.5 kmh SSW 13.9 mph22.4 kmh 29.85 in1010.8 mb 0.00 in0.0 mm 0.00 in0.0 mm 0.00 in0.0 mm
12:32 PM 78.4°F25.8°C 48.6°F9.2°C 35% 10.3 mph SW16.6 kmh SW 14.8 mph23.8 kmh 29.85 in1010.8 mb 0.00 in0.0 mm 0.00 in0.0 mm 0.00 in0.0 mm
12:37 PM 78.6°F25.9°C 50.2°F10.1°C 37% 7.2 mph SSW11.6 kmh SSW 13.9 mph22.4 kmh 29.85 in1010.8 mb 0.00 in0.0 mm 0.00 in0.0 mm 0.00 in0.0 mm
12:42 PM 78.3°F25.7°C 48.4°F9.1°C 35% 8.3 mph SW13.4 kmh SW 12.8 mph20.6 kmh 29.85 in1010.8 mb 0.00 in0.0 mm 0.00 in0.0 mm 0.00 in0.0 mm
12:47 PM 78.3°F25.7°C 49.1°F9.5°C 36% 8.3 mph SW13.4 kmh SW 12.8 mph20.6 kmh 29.85 in1010.8 mb 0.00 in0.0 mm 0.00 in0.0 mm 0.00 in0.0 mm
12:52 PM 77.5°F25.3°C 50.5°F10.3°C 39% 7.4 mph WSW11.9 kmh WSW 14.8 mph23.8 kmh 29.85 in1010.8 mb 0.00 in0.0 mm 0.00 in0.0 mm 0.00 in0.0 mm
12:57 PM 76.8°F24.9°C 51.3°F10.7°C 41% 10.5 mph SW16.9 kmh SW 15.9 mph25.6 kmh 29.85 in1010.8 mb 0.00 in0.0 mm 0.00 in0.0 mm 0.00 in0.0 mm
01:02 PM 77.4°F25.2°C 51.8°F11.0°C 41% 8.1 mph SW13.0 kmh SW 13.9 mph22.4 kmh 29.85 in1010.8 mb 0.00 in0.0 mm 0.00 in0.0 mm 0.00 in0.0 mm
01:07 PM 77.0°F25.0°C 52.2°F11.2°C 42% 7.8 mph WSW12.6 kmh WSW 13.9 mph22.4 kmh 29.85 in1010.8 mb 0.00 in0.0 mm 0.00 in0.0 mm 0.00 in0.0 mm
01:12 PM 76.6°F24.8°C 52.5°F11.4°C 43% 7.4 mph SW11.9 kmh SW 12.8 mph20.6 kmh 29.85 in1010.8 mb 0.00 in0.0 mm 0.00 in0.0 mm 0.00 in0.0 mm
01:17 PM 77.0°F25.0°C 52.9°F11.6°C 43% 9.6 mph SSW15.4 kmh SSW 13.9 mph22.4 kmh 29.85 in1010.8 mb 0.00 in0.0 mm 0.00 in0.0 mm 0.00 in0.0 mm
01:22 PM 76.5°F24.7°C 52.9°F11.6°C 44% 8.3 mph SW13.4 kmh SW 13.9 mph22.4 kmh 29.85 in1010.8 mb 0.00 in0.0 mm 0.00 in0.0 mm 0.00 in0.0 mm
01:27 PM 75.9°F24.4°C 51.8°F11.0°C 43% 8.3 mph SSW13.4 kmh SSW 12.8 mph20.6 kmh 29.85 in1010.8 mb 0.00 in0.0 mm 0.00 in0.0 mm 0.00 in0.0 mm
01:32 PM 75.7°F24.3°C 51.6°F10.9°C 43% 8.3 mph SW13.4 kmh SW 12.8 mph20.6 kmh 29.85 in1010.8 mb 0.00 in0.0 mm 0.00 in0.0 mm 0.00 in0.0 mm
01:37 PM 75.7°F24.3°C 52.3°F11.3°C 44% 7.2 mph WSW11.6 kmh WSW 12.8 mph20.6 kmh 29.85 in1010.8 mb 0.00 in0.0 mm 0.00 in0.0 mm 0.00 in0.0 mm
01:42 PM 75.6°F24.2°C 51.4°F10.8°C 43% 8.3 mph SW13.4 kmh SW 11.6 mph18.7 kmh 29.85 in1010.8 mb 0.00 in0.0 mm 0.00 in0.0 mm 0.00 in0.0 mm
01:47 PM 75.4°F24.1°C 51.3°F10.7°C 43% 7.2 mph SW11.6 kmh SW 13.9 mph22.4 kmh 29.85 in1010.8 mb 0.00 in0.0 mm 0.00 in0.0 mm 0.00 in0.0 mm
01:52 PM 75.6°F24.2°C 52.2°F11.2°C 44% 6.3 mph SSW10.1 kmh SSW 15.9 mph25.6 kmh 29.84 in1010.5 mb 0.00 in0.0 mm 0.00 in0.0 mm 0.00 in0.0 mm
01:57 PM 76.1°F24.5°C 53.2°F11.8°C 45% 4.5 mph SSW7.2 kmh SSW 10.5 mph16.9 kmh 29.84 in1010.5 mb 0.00 in0.0 mm 0.00 in0.0 mm 0.00 in0.0 mm
02:02 PM 75.7°F24.3°C 53.4°F11.9°C 46% 6.5 mph SW10.5 kmh SW 11.6 mph18.7 kmh 29.85 in1010.8 mb 0.00 in0.0 mm 0.00 in0.0 mm 0.00 in0.0 mm
02:07 PM 75.9°F24.4°C 54.3°F12.4°C 47% 6.9 mph SSW11.1 kmh SSW 11.6 mph18.7 kmh 29.84 in1010.5 mb 0.00 in0.0 mm 0.00 in0.0 mm 0.00 in0.0 mm
02:12 PM 75.4°F24.1°C 54.9°F12.7°C 49% 4.0 mph SW6.4 kmh SW 12.8 mph20.6 kmh 29.84 in1010.5 mb 0.00 in0.0 mm 0.00 in0.0 mm 0.00 in0.0 mm
02:17 PM 75.6°F24.2°C 55.6°F13.1°C 50% 5.4 mph W8.7 kmh W 12.8 mph20.6 kmh 29.84 in1010.5 mb 0.00 in0.0 mm 0.00 in0.0 mm 0.00 in0.0 mm
02:22 PM 76.1°F24.5°C 56.7°F13.7°C 51% 6.0 mph WSW9.7 kmh WSW 10.5 mph16.9 kmh 29.84 in1010.5 mb 0.00 in0.0 mm 0.00 in0.0 mm 0.00 in0.0 mm
02:27 PM 76.5°F24.7°C 57.0°F13.9°C 51% 6.3 mph WSW10.1 kmh WSW 9.6 mph15.4 kmh 29.84 in1010.5 mb 0.00 in0.0 mm 0.00 in0.0 mm 0.00 in0.0 mm
02:32 PM 76.6°F24.8°C 56.7°F13.7°C 50% 6.0 mph S9.7 kmh S 10.5 mph16.9 kmh 29.83 in1010.2 mb 0.00 in0.0 mm 0.00 in0.0 mm 0.00 in0.0 mm
02:37 PM 77.0°F25.0°C 57.0°F13.9°C 50% 4.9 mph SW7.9 kmh SW 9.6 mph15.4 kmh 29.83 in1010.2 mb 0.00 in0.0 mm 0.00 in0.0 mm 0.00 in0.0 mm
02:42 PM 76.5°F24.7°C 57.0°F13.9°C 51% 6.5 mph SW10.5 kmh SW 12.8 mph20.6 kmh 29.83 in1010.2 mb 0.00 in0.0 mm 0.00 in0.0 mm 0.00 in0.0 mm
02:47 PM 77.0°F25.0°C 57.0°F13.9°C 50% 7.2 mph WSW11.6 kmh WSW 12.8 mph20.6 kmh 29.83 in1010.2 mb 0.00 in0.0 mm 0.00 in0.0 mm 0.00 in0.0 mm
02:52 PM 76.5°F24.7°C 57.6°F14.2°C 52% 5.6 mph SW9.0 kmh SW 11.6 mph18.7 kmh 29.83 in1010.2 mb 0.00 in0.0 mm 0.00 in0.0 mm 0.00 in0.0 mm
02:57 PM 76.6°F24.8°C 55.4°F13.0°C 48% 7.4 mph SW11.9 kmh SW 10.5 mph16.9 kmh 29.83 in1010.2 mb 0.00 in0.0 mm 0.00 in0.0 mm 0.00 in0.0 mm
03:02 PM 76.3°F24.6°C 55.2°F12.9°C 48% 6.9 mph SW11.1 kmh SW 10.5 mph16.9 kmh 29.83 in1010.2 mb 0.00 in0.0 mm 0.00 in0.0 mm 0.00 in0.0 mm
03:07 PM 76.5°F24.7°C 56.5°F13.6°C 50% 7.2 mph SW11.6 kmh SW 11.6 mph18.7 kmh 29.83 in1010.2 mb 0.00 in0.0 mm 0.00 in0.0 mm 0.00 in0.0 mm
03:12 PM 76.5°F24.7°C 55.4°F13.0°C 48% 6.7 mph SW10.8 kmh SW 11.6 mph18.7 kmh 29.83 in1010.2 mb 0.00 in0.0 mm 0.00 in0.0 mm 0.00 in0.0 mm
03:17 PM 76.1°F24.5°C 55.6°F13.1°C 49% 6.0 mph W9.7 kmh W 10.5 mph16.9 kmh 29.83 in1010.2 mb 0.00 in0.0 mm 0.00 in0.0 mm 0.00 in0.0 mm
03:22 PM 75.7°F24.3°C 56.3°F13.5°C 51% 6.3 mph SW10.1 kmh SW 10.5 mph16.9 kmh 29.83 in1010.2 mb 0.00 in0.0 mm 0.00 in0.0 mm 0.00 in0.0 mm
03:27 PM 75.7°F24.3°C 56.3°F13.5°C 51% 6.5 mph SSW10.5 kmh SSW 12.8 mph20.6 kmh 29.83 in1010.2 mb 0.00 in0.0 mm 0.00 in0.0 mm 0.00 in0.0 mm
03:32 PM 75.6°F24.2°C 55.0°F12.8°C 49% 6.7 mph SSE10.8 kmh SSE 11.6 mph18.7 kmh 29.83 in1010.2 mb 0.00 in0.0 mm 0.00 in0.0 mm 0.00 in0.0 mm
03:37 PM 75.7°F24.3°C 56.8°F13.8°C 52% 6.3 mph SSW10.1 kmh SSW 10.5 mph16.9 kmh 29.83 in1010.2 mb 0.00 in0.0 mm 0.00 in0.0 mm 0.00 in0.0 mm
03:42 PM 75.2°F24.0°C 56.3°F13.5°C 52% 8.1 mph SW13.0 kmh SW 12.8 mph20.6 kmh 29.83 in1010.2 mb 0.00 in0.0 mm 0.00 in0.0 mm 0.00 in0.0 mm
03:47 PM 75.0°F23.9°C 56.1°F13.4°C 52% 6.3 mph SW10.1 kmh SW 12.8 mph20.6 kmh 29.83 in1010.2 mb 0.00 in0.0 mm 0.00 in0.0 mm 0.00 in0.0 mm
03:52 PM 74.8°F23.8°C 56.5°F13.6°C 53% 7.6 mph WSW12.2 kmh WSW 12.8 mph20.6 kmh 29.83 in1010.2 mb 0.00 in0.0 mm 0.00 in0.0 mm 0.00 in0.0 mm
03:57 PM 74.7°F23.7°C 56.5°F13.6°C 53% 7.8 mph SW12.6 kmh SW 12.8 mph20.6 kmh 29.83 in1010.2 mb 0.00 in0.0 mm 0.00 in0.0 mm 0.00 in0.0 mm
04:02 PM 74.3°F23.5°C 57.0°F13.9°C 55% 5.6 mph SW9.0 kmh SW 11.6 mph18.7 kmh 29.83 in1010.2 mb 0.00 in0.0 mm 0.00 in0.0 mm 0.00 in0.0 mm
04:07 PM 73.9°F23.3°C 56.3°F13.5°C 54% 5.6 mph SW9.0 kmh SW 11.6 mph18.7 kmh 29.83 in1010.2 mb 0.00 in0.0 mm 0.00 in0.0 mm 0.00 in0.0 mm
04:12 PM 73.8°F23.2°C 57.0°F13.9°C 56% 6.3 mph SW10.1 kmh SW 11.6 mph18.7 kmh 29.83 in1010.2 mb 0.00 in0.0 mm 0.00 in0.0 mm 0.00 in0.0 mm
04:17 PM 73.9°F23.3°C 56.8°F13.8°C 55% 5.8 mph SW9.3 kmh SW 9.6 mph15.4 kmh 29.83 in1010.2 mb 0.00 in0.0 mm 0.00 in0.0 mm 0.00 in0.0 mm
04:22 PM 73.9°F23.3°C 56.8°F13.8°C 55% 5.4 mph SW8.7 kmh SW 9.6 mph15.4 kmh 29.83 in1010.2 mb 0.00 in0.0 mm 0.00 in0.0 mm 0.00 in0.0 mm
04:27 PM 73.4°F23.0°C 56.3°F13.5°C 55% 6.7 mph SW10.8 kmh SW 9.6 mph15.4 kmh 29.83 in1010.2 mb 0.00 in0.0 mm 0.00 in0.0 mm 0.00 in0.0 mm
04:32 PM 73.0°F22.8°C 56.8°F13.8°C 57% 5.6 mph S9.0 kmh S 9.6 mph15.4 kmh 29.83 in1010.2 mb 0.00 in0.0 mm 0.00 in0.0 mm 0.00 in0.0 mm
04:37 PM 73.4°F23.0°C 56.7°F13.7°C 56% 4.7 mph WSW7.6 kmh WSW 10.5 mph16.9 kmh 29.83 in1010.2 mb 0.00 in0.0 mm 0.00 in0.0 mm 0.00 in0.0 mm
04:42 PM 73.0°F22.8°C 56.5°F13.6°C 56% 4.7 mph SW7.6 kmh SW 8.5 mph13.7 kmh 29.83 in1010.2 mb 0.00 in0.0 mm 0.00 in0.0 mm 0.00 in0.0 mm
04:47 PM 72.9°F22.7°C 56.3°F13.5°C 56% 5.6 mph SW9.0 kmh SW 8.5 mph13.7 kmh 29.83 in1010.2 mb 0.00 in0.0 mm 0.00 in0.0 mm 0.00 in0.0 mm
04:52 PM 72.9°F22.7°C 56.3°F13.5°C 56% 5.8 mph SW9.3 kmh SW 10.5 mph16.9 kmh 29.83 in1010.2 mb 0.00 in0.0 mm 0.00 in0.0 mm 0.00 in0.0 mm
04:57 PM 72.7°F22.6°C 56.5°F13.6°C 57% 5.6 mph SW9.0 kmh SW 10.5 mph16.9 kmh 29.83 in1010.2 mb 0.00 in0.0 mm 0.00 in0.0 mm 0.00 in0.0 mm
05:02 PM 72.1°F22.3°C 56.1°F13.4°C 57% 4.5 mph SSW7.2 kmh SSW 8.5 mph13.7 kmh 29.83 in1010.2 mb 0.00 in0.0 mm 0.00 in0.0 mm 0.00 in0.0 mm
05:07 PM 72.1°F22.3°C 56.1°F13.4°C 57% 4.3 mph SW6.9 kmh SW 8.5 mph13.7 kmh 29.82 in1009.8 mb 0.00 in0.0 mm 0.00 in0.0 mm 0.00 in0.0 mm
05:12 PM 72.1°F22.3°C 57.0°F13.9°C 59% 3.6 mph S5.8 kmh S 8.5 mph13.7 kmh 29.82 in1009.8 mb 0.00 in0.0 mm 0.00 in0.0 mm 0.00 in0.0 mm
05:17 PM 72.0°F22.2°C 56.8°F13.8°C 59% 3.6 mph SW5.8 kmh SW 7.4 mph11.9 kmh 29.82 in1009.8 mb 0.00 in0.0 mm 0.00 in0.0 mm 0.00 in0.0 mm
05:22 PM 72.0°F22.2°C 57.4°F14.1°C 60% 3.8 mph WSW6.1 kmh WSW 6.3 mph10.1 kmh 29.82 in1009.8 mb 0.00 in0.0 mm 0.00 in0.0 mm 0.00 in0.0 mm
05:27 PM 71.4°F21.9°C 57.2°F14.0°C 61% 4.7 mph SW7.6 kmh SW 7.4 mph11.9 kmh 29.82 in1009.8 mb 0.00 in0.0 mm 0.00 in0.0 mm 0.00 in0.0 mm
05:32 PM 71.1°F21.7°C 57.4°F14.1°C 62% 3.8 mph SW6.1 kmh SW 6.3 mph10.1 kmh 29.82 in1009.8 mb 0.00 in0.0 mm 0.00 in0.0 mm 0.00 in0.0 mm
05:37 PM 71.1°F21.7°C 57.7°F14.3°C 63% 2.0 mph SW3.2 kmh SW 6.3 mph10.1 kmh 29.82 in1009.8 mb 0.00 in0.0 mm 0.00 in0.0 mm 0.00 in0.0 mm
05:42 PM 70.7°F21.5°C 57.6°F14.2°C 63% 0.9 mph SSW1.4 kmh SSW 5.4 mph8.7 kmh 29.82 in1009.8 mb 0.00 in0.0 mm 0.00 in0.0 mm 0.00 in0.0 mm
05:47 PM 70.7°F21.5°C 57.9°F14.4°C 64% 2.5 mph SW4.0 kmh SW 4.3 mph6.9 kmh 29.82 in1009.8 mb 0.00 in0.0 mm 0.00 in0.0 mm 0.00 in0.0 mm
05:52 PM 70.2°F21.2°C 57.0°F13.9°C 63% 3.8 mph SW6.1 kmh SW 6.3 mph10.1 kmh 29.82 in1009.8 mb 0.00 in0.0 mm 0.00 in0.0 mm 0.00 in0.0 mm
05:57 PM 70.0°F21.1°C 57.7°F14.3°C 65% 2.9 mph SW4.7 kmh SW 6.3 mph10.1 kmh 29.82 in1009.8 mb 0.00 in0.0 mm 0.00 in0.0 mm 0.00 in0.0 mm
06:02 PM 69.6°F20.9°C 57.4°F14.1°C 65% 2.7 mph SW4.3 kmh SW 4.3 mph6.9 kmh 29.82 in1009.8 mb 0.00 in0.0 mm 0.00 in0.0 mm 0.00 in0.0 mm
06:07 PM 68.7°F20.4°C 57.4°F14.1°C 67% 1.1 mph WSW1.8 kmh WSW 5.4 mph8.7 kmh 29.82 in1009.8 mb 0.00 in0.0 mm 0.00 in0.0 mm 0.00 in0.0 mm
06:12 PM 68.4°F20.2°C 57.4°F14.1°C 68% 2.5 mph SW4.0 kmh SW 5.4 mph8.7 kmh 29.82 in1009.8 mb 0.00 in0.0 mm 0.00 in0.0 mm 0.00 in0.0 mm
06:17 PM 67.8°F19.9°C 57.7°F14.3°C 70% 1.8 mph SSW2.9 kmh SSW 4.3 mph6.9 kmh 29.82 in1009.8 mb 0.00 in0.0 mm 0.00 in0.0 mm 0.00 in0.0 mm
06:22 PM 67.6°F19.8°C 57.9°F14.4°C 71% 0.4 mph SW0.6 kmh SW 3.1 mph5.0 kmh 29.82 in1009.8 mb 0.00 in0.0 mm 0.00 in0.0 mm 0.00 in0.0 mm
06:27 PM 67.5°F19.7°C 57.7°F14.3°C 71% 1.1 mph SW1.8 kmh SW 3.1 mph5.0 kmh 29.82 in1009.8 mb 0.00 in0.0 mm 0.00 in0.0 mm 0.00 in0.0 mm
06:32 PM 66.9°F19.4°C 57.2°F14.0°C 71% 1.3 mph W2.1 kmh W 3.1 mph5.0 kmh 29.82 in1009.8 mb 0.00 in0.0 mm 0.00 in0.0 mm 0.00 in0.0 mm
06:37 PM 66.6°F19.2°C 57.6°F14.2°C 73% 1.1 mph SW1.8 kmh SW 4.3 mph6.9 kmh 29.82 in1009.8 mb 0.00 in0.0 mm 0.00 in0.0 mm 0.00 in0.0 mm
06:42 PM 66.2°F19.0°C 57.7°F14.3°C 74% Calm Calm 3.1 mph5.0 kmh 29.82 in1009.8 mb 0.00 in0.0 mm 0.00 in0.0 mm 0.00 in0.0 mm
06:47 PM 65.8°F18.8°C 57.7°F14.3°C 75% Calm Calm -- 29.83 in1010.2 mb 0.00 in0.0 mm 0.00 in0.0 mm 0.00 in0.0 mm
06:52 PM 65.5°F18.6°C 57.4°F14.1°C 75% Calm Calm 1.1 mph1.8 kmh 29.83 in1010.2 mb 0.00 in0.0 mm 0.00 in0.0 mm 0.00 in0.0 mm
06:57 PM 65.1°F18.4°C 57.4°F14.1°C 76% Calm Calm 2.0 mph3.2 kmh 29.83 in1010.2 mb 0.00 in0.0 mm 0.00 in0.0 mm 0.00 in0.0 mm
07:02 PM 64.9°F18.3°C 57.6°F14.2°C 77% 0.2 mph SW0.3 kmh SW 2.0 mph3.2 kmh 29.83 in1010.2 mb 0.00 in0.0 mm 0.00 in0.0 mm 0.00 in0.0 mm
07:07 PM 64.8°F18.2°C 57.7°F14.3°C 78% Calm Calm -- 29.83 in1010.2 mb 0.00 in0.0 mm 0.00 in0.0 mm 0.00 in0.0 mm
07:12 PM 64.6°F18.1°C 57.6°F14.2°C 78% Calm Calm 1.1 mph1.8 kmh 29.83 in1010.2 mb 0.00 in0.0 mm 0.00 in0.0 mm 0.00 in0.0 mm
07:17 PM 64.2°F17.9°C 57.6°F14.2°C 79% Calm Calm -- 29.83 in1010.2 mb 0.00 in0.0 mm 0.00 in0.0 mm 0.00 in0.0 mm
07:22 PM 64.2°F17.9°C 57.6°F14.2°C 79% 0.4 mph SW0.6 kmh SW 2.0 mph3.2 kmh 29.83 in1010.2 mb 0.00 in0.0 mm 0.00 in0.0 mm 0.00 in0.0 mm
07:27 PM 64.0°F17.8°C 57.7°F14.3°C 80% Calm Calm -- 29.83 in1010.2 mb 0.00 in0.0 mm 0.00 in0.0 mm 0.00 in0.0 mm
07:32 PM 64.0°F17.8°C 57.7°F14.3°C 80% Calm Calm -- 29.83 in1010.2 mb 0.00 in0.0 mm 0.00 in0.0 mm 0.00 in0.0 mm
07:37 PM 64.2°F17.9°C 57.6°F14.2°C 79% Calm Calm -- 29.83 in1010.2 mb 0.00 in0.0 mm 0.00 in0.0 mm 0.00 in0.0 mm
07:42 PM 64.2°F17.9°C 57.6°F14.2°C 79% Calm Calm -- 29.83 in1010.2 mb 0.00 in0.0 mm 0.00 in0.0 mm 0.00 in0.0 mm
07:47 PM 63.9°F17.7°C 56.8°F13.8°C 78% Calm Calm -- 29.83 in1010.2 mb 0.00 in0.0 mm 0.00 in0.0 mm 0.00 in0.0 mm
07:52 PM 63.7°F17.6°C 57.4°F14.1°C 80% Calm Calm -- 29.83 in1010.2 mb 0.00 in0.0 mm 0.00 in0.0 mm 0.00 in0.0 mm
07:57 PM 63.3°F17.4°C 57.4°F14.1°C 81% Calm Calm -- 29.83 in1010.2 mb 0.00 in0.0 mm 0.00 in0.0 mm 0.00 in0.0 mm
08:02 PM 63.1°F17.3°C 57.2°F14.0°C 81% Calm Calm -- 29.83 in1010.2 mb 0.00 in0.0 mm 0.00 in0.0 mm 0.00 in0.0 mm
08:07 PM 63.3°F17.4°C 57.7°F14.3°C 82% Calm Calm -- 29.84 in1010.5 mb 0.00 in0.0 mm 0.00 in0.0 mm 0.00 in0.0 mm
08:12 PM 63.1°F17.3°C 57.2°F14.0°C 81% Calm Calm -- 29.85 in1010.8 mb 0.00 in0.0 mm 0.00 in0.0 mm 0.00 in0.0 mm
08:17 PM 63.0°F17.2°C 57.4°F14.1°C 82% Calm Calm -- 29.84 in1010.5 mb 0.00 in0.0 mm 0.00 in0.0 mm 0.00 in0.0 mm
08:22 PM 63.0°F17.2°C 57.7°F14.3°C 83% Calm Calm -- 29.85 in1010.8 mb 0.00 in0.0 mm 0.00 in0.0 mm 0.00 in0.0 mm
08:27 PM 63.0°F17.2°C 57.4°F14.1°C 82% Calm Calm -- 29.85 in1010.8 mb 0.00 in0.0 mm 0.00 in0.0 mm 0.00 in0.0 mm
08:32 PM 62.6°F17.0°C 57.4°F14.1°C 83% Calm Calm -- 29.85 in1010.8 mb 0.00 in0.0 mm 0.00 in0.0 mm 0.00 in0.0 mm
08:37 PM 62.4°F16.9°C 57.6°F14.2°C 84% Calm Calm -- 29.85 in1010.8 mb 0.00 in0.0 mm 0.00 in0.0 mm 0.00 in0.0 mm
08:42 PM 62.4°F16.9°C 57.6°F14.2°C 84% Calm Calm -- 29.85 in1010.8 mb 0.00 in0.0 mm 0.00 in0.0 mm 0.00 in0.0 mm
08:47 PM 62.2°F16.8°C 57.4°F14.1°C 84% Calm Calm 1.1 mph1.8 kmh 29.85 in1010.8 mb 0.00 in0.0 mm 0.00 in0.0 mm 0.00 in0.0 mm
08:52 PM 62.1°F16.7°C 57.6°F14.2°C 85% Calm Calm 1.1 mph1.8 kmh 29.85 in1010.8 mb 0.00 in0.0 mm 0.00 in0.0 mm 0.00 in0.0 mm
08:57 PM 62.1°F16.7°C 57.6°F14.2°C 85% Calm Calm -- 29.85 in1010.8 mb 0.00 in0.0 mm 0.00 in0.0 mm 0.00 in0.0 mm
09:02 PM 61.9°F16.6°C 57.6°F14.2°C 86% Calm Calm -- 29.85 in1010.8 mb 0.00 in0.0 mm 0.00 in0.0 mm 0.00 in0.0 mm
09:07 PM 61.9°F16.6°C 57.6°F14.2°C 86% Calm Calm -- 29.85 in1010.8 mb 0.00 in0.0 mm 0.00 in0.0 mm 0.00 in0.0 mm
09:12 PM 61.7°F16.5°C 57.4°F14.1°C 86% Calm Calm -- 29.85 in1010.8 mb 0.00 in0.0 mm 0.00 in0.0 mm 0.00 in0.0 mm
09:17 PM 61.5°F16.4°C 57.4°F14.1°C 86% Calm Calm -- 29.85 in1010.8 mb 0.00 in0.0 mm 0.00 in0.0 mm 0.00 in0.0 mm
09:22 PM 61.5°F16.4°C 57.6°F14.2°C 87% 0.9 mph SW1.4 kmh SW 3.1 mph5.0 kmh 29.85 in1010.8 mb 0.00 in0.0 mm 0.00 in0.0 mm 0.00 in0.0 mm
09:27 PM 61.3°F16.3°C 57.4°F14.1°C 87% Calm Calm 3.1 mph5.0 kmh 29.85 in1010.8 mb 0.00 in0.0 mm 0.00 in0.0 mm 0.00 in0.0 mm
09:32 PM 61.3°F16.3°C 57.4°F14.1°C 87% 0.2 mph WSW0.3 kmh WSW 1.1 mph1.8 kmh 29.85 in1010.8 mb 0.00 in0.0 mm 0.00 in0.0 mm 0.00 in0.0 mm
09:37 PM 61.2°F16.2°C 57.6°F14.2°C 88% Calm Calm 2.0 mph3.2 kmh 29.86 in1011.2 mb 0.00 in0.0 mm 0.00 in0.0 mm 0.00 in0.0 mm
09:42 PM 61.2°F16.2°C 57.6°F14.2°C 88% Calm Calm -- 29.86 in1011.2 mb 0.00 in0.0 mm 0.00 in0.0 mm 0.00 in0.0 mm
09:47 PM 61.2°F16.2°C 57.6°F14.2°C 88% 0.2 mph SW0.3 kmh SW 1.1 mph1.8 kmh 29.86 in1011.2 mb 0.00 in0.0 mm 0.00 in0.0 mm 0.00 in0.0 mm
09:52 PM 61.0°F16.1°C 57.4°F14.1°C 88% Calm Calm -- 29.86 in1011.2 mb 0.00 in0.0 mm 0.00 in0.0 mm 0.00 in0.0 mm
09:57 PM 61.0°F16.1°C 57.7°F14.3°C 89% Calm Calm -- 29.86 in1011.2 mb 0.00 in0.0 mm 0.00 in0.0 mm 0.00 in0.0 mm
10:02 PM 60.8°F16.0°C 57.6°F14.2°C 89% Calm Calm -- 29.86 in1011.2 mb 0.00 in0.0 mm 0.00 in0.0 mm 0.00 in0.0 mm
10:07 PM 60.4°F15.8°C 56.8°F13.8°C 88% Calm Calm -- 29.86 in1011.2 mb 0.00 in0.0 mm 0.00 in0.0 mm 0.00 in0.0 mm
10:12 PM 60.4°F15.8°C 57.2°F14.0°C 89% Calm Calm -- 29.86 in1011.2 mb 0.00 in0.0 mm 0.00 in0.0 mm 0.00 in0.0 mm
10:17 PM 60.4°F15.8°C 57.2°F14.0°C 89% Calm Calm -- 29.86 in1011.2 mb 0.00 in0.0 mm 0.00 in0.0 mm 0.00 in0.0 mm
10:22 PM 60.3°F15.7°C 57.0°F13.9°C 89% Calm Calm -- 29.86 in1011.2 mb 0.00 in0.0 mm 0.00 in0.0 mm 0.00 in0.0 mm
10:27 PM 60.1°F15.6°C 56.8°F13.8°C 89% Calm Calm -- 29.86 in1011.2 mb 0.00 in0.0 mm 0.00 in0.0 mm 0.00 in0.0 mm
10:32 PM 59.7°F15.4°C 56.8°F13.8°C 90% Calm Calm -- 29.86 in1011.2 mb 0.00 in0.0 mm 0.00 in0.0 mm 0.00 in0.0 mm
10:37 PM 59.5°F15.3°C 56.7°F13.7°C 90% Calm Calm -- 29.86 in1011.2 mb 0.00 in0.0 mm 0.00 in0.0 mm 0.00 in0.0 mm
10:42 PM 59.5°F15.3°C 56.7°F13.7°C 90% Calm Calm 1.1 mph1.8 kmh 29.86 in1011.2 mb 0.00 in0.0 mm 0.00 in0.0 mm 0.00 in0.0 mm
10:47 PM 59.4°F15.2°C 56.5°F13.6°C 90% Calm Calm -- 29.86 in1011.2 mb 0.00 in0.0 mm 0.00 in0.0 mm 0.00 in0.0 mm
10:52 PM 59.4°F15.2°C 56.7°F13.7°C 91% Calm Calm -- 29.86 in1011.2 mb 0.00 in0.0 mm 0.00 in0.0 mm 0.00 in0.0 mm
10:57 PM 59.2°F15.1°C 56.5°F13.6°C 91% Calm Calm -- 29.86 in1011.2 mb 0.00 in0.0 mm 0.00 in0.0 mm 0.00 in0.0 mm
11:02 PM 59.2°F15.1°C 56.8°F13.8°C 92% Calm Calm -- 29.86 in1011.2 mb 0.00 in0.0 mm 0.00 in0.0 mm 0.00 in0.0 mm
11:07 PM 59.2°F15.1°C 56.8°F13.8°C 92% Calm Calm -- 29.86 in1011.2 mb 0.00 in0.0 mm 0.00 in0.0 mm 0.00 in0.0 mm
11:12 PM 59.0°F15.0°C 56.7°F13.7°C 92% Calm Calm -- 29.87 in1011.5 mb 0.00 in0.0 mm 0.00 in0.0 mm 0.00 in0.0 mm
11:17 PM 59.0°F15.0°C 56.7°F13.7°C 92% Calm Calm -- 29.86 in1011.2 mb 0.00 in0.0 mm 0.00 in0.0 mm 0.00 in0.0 mm
11:22 PM 58.8°F14.9°C 56.5°F13.6°C 92% Calm Calm -- 29.86 in1011.2 mb 0.00 in0.0 mm 0.00 in0.0 mm 0.00 in0.0 mm
11:27 PM 58.5°F14.7°C 56.1°F13.4°C 92% Calm Calm -- 29.86 in1011.2 mb 0.00 in0.0 mm 0.00 in0.0 mm 0.00 in0.0 mm
11:32 PM 58.5°F14.7°C 56.5°F13.6°C 93% Calm Calm -- 29.86 in1011.2 mb 0.00 in0.0 mm 0.00 in0.0 mm 0.00 in0.0 mm
11:37 PM 58.5°F14.7°C 56.1°F13.4°C 92% Calm Calm -- 29.86 in1011.2 mb 0.00 in0.0 mm 0.00 in0.0 mm 0.00 in0.0 mm
11:42 PM 58.3°F14.6°C 55.9°F13.3°C 92% Calm Calm -- 29.86 in1011.2 mb 0.00 in0.0 mm 0.00 in0.0 mm 0.00 in0.0 mm
11:47 PM 57.9°F14.4°C 55.9°F13.3°C 93% Calm Calm -- 29.86 in1011.2 mb 0.00 in0.0 mm 0.00 in0.0 mm 0.00 in0.0 mm
11:52 PM 57.9°F14.4°C 55.9°F13.3°C 93% Calm Calm -- 29.86 in1011.2 mb 0.00 in0.0 mm 0.00 in0.0 mm 0.00 in0.0 mm
11:57 PM 57.9°F14.4°C 56.1°F13.4°C 94% Calm Calm -- 29.86 in1011.2 mb 0.00 in0.0 mm 0.00 in0.0 mm 0.00 in0.0 mm